sensor_id;sensor_type;location;lat;lon;timestamp;P1;durP1;ratioP1;P2;durP2;ratioP2
4409;SDS011;2218;51.408;7.208;2022-08-21T00:00:08;2.93;;;2.73;;
4409;SDS011;2218;51.408;7.208;2022-08-21T00:02:44;3.30;;;3.10;;
4409;SDS011;2218;51.408;7.208;2022-08-21T00:05:20;2.87;;;2.67;;
4409;SDS011;2218;51.408;7.208;2022-08-21T00:07:49;2.77;;;2.67;;
4409;SDS011;2218;51.408;7.208;2022-08-21T00:10:17;2.90;;;2.70;;
4409;SDS011;2218;51.408;7.208;2022-08-21T00:12:45;2.90;;;2.70;;
4409;SDS011;2218;51.408;7.208;2022-08-21T00:15:14;2.63;;;2.53;;
4409;SDS011;2218;51.408;7.208;2022-08-21T00:17:46;2.47;;;2.37;;
4409;SDS011;2218;51.408;7.208;2022-08-21T00:20:14;3.10;;;2.90;;
4409;SDS011;2218;51.408;7.208;2022-08-21T00:22:44;2.80;;;2.60;;
4409;SDS011;2218;51.408;7.208;2022-08-21T00:25:12;2.97;;;2.77;;
4409;SDS011;2218;51.408;7.208;2022-08-21T00:27:41;2.93;;;2.73;;
4409;SDS011;2218;51.408;7.208;2022-08-21T00:30:11;2.80;;;2.60;;
4409;SDS011;2218;51.408;7.208;2022-08-21T00:32:40;2.57;;;2.30;;
4409;SDS011;2218;51.408;7.208;2022-08-21T00:35:10;2.73;;;2.53;;
4409;SDS011;2218;51.408;7.208;2022-08-21T00:37:41;2.57;;;2.47;;
4409;SDS011;2218;51.408;7.208;2022-08-21T00:40:12;2.97;;;2.77;;
4409;SDS011;2218;51.408;7.208;2022-08-21T00:42:43;2.63;;;2.53;;
4409;SDS011;2218;51.408;7.208;2022-08-21T00:45:10;2.47;;;2.37;;
4409;SDS011;2218;51.408;7.208;2022-08-21T00:47:38;3.10;;;2.90;;
4409;SDS011;2218;51.408;7.208;2022-08-21T00:50:06;2.80;;;2.60;;
4409;SDS011;2218;51.408;7.208;2022-08-21T00:52:37;3.00;;;2.80;;
4409;SDS011;2218;51.408;7.208;2022-08-21T00:55:07;2.60;;;2.40;;
4409;SDS011;2218;51.408;7.208;2022-08-21T00:57:38;2.47;;;2.37;;
4409;SDS011;2218;51.408;7.208;2022-08-21T01:00:12;2.80;;;2.60;;
4409;SDS011;2218;51.408;7.208;2022-08-21T01:02:43;3.00;;;2.80;;
4409;SDS011;2218;51.408;7.208;2022-08-21T01:05:12;3.50;;;3.20;;
4409;SDS011;2218;51.408;7.208;2022-08-21T01:07:40;3.00;;;2.80;;
4409;SDS011;2218;51.408;7.208;2022-08-21T01:10:10;3.00;;;2.80;;
4409;SDS011;2218;51.408;7.208;2022-08-21T01:12:39;2.93;;;2.73;;
4409;SDS011;2218;51.408;7.208;2022-08-21T01:15:07;2.50;;;2.30;;
4409;SDS011;2218;51.408;7.208;2022-08-21T01:17:36;2.63;;;2.47;;
4409;SDS011;2218;51.408;7.208;2022-08-21T01:20:06;2.87;;;2.67;;
4409;SDS011;2218;51.408;7.208;2022-08-21T01:22:38;2.80;;;2.60;;
4409;SDS011;2218;51.408;7.208;2022-08-21T01:25:06;2.40;;;2.30;;
4409;SDS011;2218;51.408;7.208;2022-08-21T01:27:36;2.77;;;2.67;;
4409;SDS011;2218;51.408;7.208;2022-08-21T01:30:06;2.67;;;2.57;;
4409;SDS011;2218;51.408;7.208;2022-08-21T01:32:39;2.80;;;2.60;;
4409;SDS011;2218;51.408;7.208;2022-08-21T01:35:07;3.10;;;2.80;;
4409;SDS011;2218;51.408;7.208;2022-08-21T01:37:37;2.53;;;2.43;;
4409;SDS011;2218;51.408;7.208;2022-08-21T01:40:06;2.43;;;2.33;;
4409;SDS011;2218;51.408;7.208;2022-08-21T01:42:35;2.70;;;2.60;;
4409;SDS011;2218;51.408;7.208;2022-08-21T01:45:06;2.20;;;2.10;;
4409;SDS011;2218;51.408;7.208;2022-08-21T01:47:34;2.80;;;2.60;;
4409;SDS011;2218;51.408;7.208;2022-08-21T01:50:03;2.70;;;2.60;;
4409;SDS011;2218;51.408;7.208;2022-08-21T01:52:35;2.70;;;2.60;;
4409;SDS011;2218;51.408;7.208;2022-08-21T01:55:04;2.30;;;2.20;;
4409;SDS011;2218;51.408;7.208;2022-08-21T01:57:33;2.43;;;2.33;;
4409;SDS011;2218;51.408;7.208;2022-08-21T02:00:03;2.40;;;2.30;;
4409;SDS011;2218;51.408;7.208;2022-08-21T02:02:37;2.63;;;2.53;;
4409;SDS011;2218;51.408;7.208;2022-08-21T02:05:04;2.27;;;2.17;;
4409;SDS011;2218;51.408;7.208;2022-08-21T02:07:35;2.53;;;2.33;;
4409;SDS011;2218;51.408;7.208;2022-08-21T02:10:06;2.53;;;2.33;;
4409;SDS011;2218;51.408;7.208;2022-08-21T02:12:36;2.57;;;2.47;;
4409;SDS011;2218;51.408;7.208;2022-08-21T02:15:03;2.53;;;2.33;;
4409;SDS011;2218;51.408;7.208;2022-08-21T02:17:38;2.77;;;2.57;;
4409;SDS011;2218;51.408;7.208;2022-08-21T02:20:08;2.40;;;2.30;;
4409;SDS011;2218;51.408;7.208;2022-08-21T02:22:36;2.60;;;2.50;;
4409;SDS011;2218;51.408;7.208;2022-08-21T02:25:04;2.70;;;2.60;;
4409;SDS011;2218;51.408;7.208;2022-08-21T02:27:36;2.50;;;2.40;;
4409;SDS011;2218;51.408;7.208;2022-08-21T02:30:07;2.30;;;2.20;;
4409;SDS011;2218;51.408;7.208;2022-08-21T02:32:37;2.50;;;2.40;;
4409;SDS011;2218;51.408;7.208;2022-08-21T02:35:05;2.47;;;2.37;;
4409;SDS011;2218;51.408;7.208;2022-08-21T02:37:34;2.53;;;2.43;;
4409;SDS011;2218;51.408;7.208;2022-08-21T02:40:12;2.60;;;2.40;;
4409;SDS011;2218;51.408;7.208;2022-08-21T02:42:40;2.47;;;2.37;;
4409;SDS011;2218;51.408;7.208;2022-08-21T02:45:09;2.13;;;2.03;;
4409;SDS011;2218;51.408;7.208;2022-08-21T02:47:37;2.53;;;2.43;;
4409;SDS011;2218;51.408;7.208;2022-08-21T02:50:05;2.70;;;2.50;;
4409;SDS011;2218;51.408;7.208;2022-08-21T02:52:33;2.27;;;2.17;;
4409;SDS011;2218;51.408;7.208;2022-08-21T02:55:02;2.07;;;1.97;;
4409;SDS011;2218;51.408;7.208;2022-08-21T02:57:31;2.67;;;2.47;;
4409;SDS011;2218;51.408;7.208;2022-08-21T02:59:58;2.20;;;2.10;;
4409;SDS011;2218;51.408;7.208;2022-08-21T03:02:25;2.10;;;2.00;;
4409;SDS011;2218;51.408;7.208;2022-08-21T03:04:52;2.30;;;2.10;;
4409;SDS011;2218;51.408;7.208;2022-08-21T03:07:19;3.00;;;2.80;;
4409;SDS011;2218;51.408;7.208;2022-08-21T03:09:46;2.37;;;2.27;;
4409;SDS011;2218;51.408;7.208;2022-08-21T03:12:14;2.40;;;2.30;;
4409;SDS011;2218;51.408;7.208;2022-08-21T03:14:42;2.57;;;2.37;;
4409;SDS011;2218;51.408;7.208;2022-08-21T03:17:09;2.30;;;2.20;;
4409;SDS011;2218;51.408;7.208;2022-08-21T03:19:36;2.50;;;2.40;;
4409;SDS011;2218;51.408;7.208;2022-08-21T03:22:03;2.13;;;1.93;;
4409;SDS011;2218;51.408;7.208;2022-08-21T03:24:30;2.37;;;2.27;;
4409;SDS011;2218;51.408;7.208;2022-08-21T03:26:57;2.10;;;2.00;;
4409;SDS011;2218;51.408;7.208;2022-08-21T03:29:24;2.23;;;2.13;;
4409;SDS011;2218;51.408;7.208;2022-08-21T03:31:53;2.17;;;2.07;;
4409;SDS011;2218;51.408;7.208;2022-08-21T03:34:20;2.37;;;2.27;;
4409;SDS011;2218;51.408;7.208;2022-08-21T03:36:47;2.00;;;1.90;;
4409;SDS011;2218;51.408;7.208;2022-08-21T03:39:15;2.37;;;2.27;;
4409;SDS011;2218;51.408;7.208;2022-08-21T03:41:42;2.23;;;2.10;;
4409;SDS011;2218;51.408;7.208;2022-08-21T03:44:10;2.03;;;1.93;;
4409;SDS011;2218;51.408;7.208;2022-08-21T03:46:37;3.40;;;2.30;;
4409;SDS011;2218;51.408;7.208;2022-08-21T03:49:06;1.93;;;1.83;;
4409;SDS011;2218;51.408;7.208;2022-08-21T03:51:33;2.20;;;2.10;;
4409;SDS011;2218;51.408;7.208;2022-08-21T03:54:00;2.70;;;2.50;;
4409;SDS011;2218;51.408;7.208;2022-08-21T03:56:27;2.23;;;2.13;;
4409;SDS011;2218;51.408;7.208;2022-08-21T03:58:54;2.10;;;2.00;;
4409;SDS011;2218;51.408;7.208;2022-08-21T04:01:21;2.10;;;2.00;;
4409;SDS011;2218;51.408;7.208;2022-08-21T04:03:48;2.13;;;2.03;;
4409;SDS011;2218;51.408;7.208;2022-08-21T04:06:17;2.00;;;1.90;;
4409;SDS011;2218;51.408;7.208;2022-08-21T04:08:44;2.07;;;1.97;;
4409;SDS011;2218;51.408;7.208;2022-08-21T04:11:11;2.20;;;2.10;;
4409;SDS011;2218;51.408;7.208;2022-08-21T04:13:39;2.40;;;2.27;;
4409;SDS011;2218;51.408;7.208;2022-08-21T04:16:07;2.10;;;2.00;;
4409;SDS011;2218;51.408;7.208;2022-08-21T04:18:34;2.40;;;2.30;;
4409;SDS011;2218;51.408;7.208;2022-08-21T04:21:01;2.27;;;2.17;;
4409;SDS011;2218;51.408;7.208;2022-08-21T04:23:31;2.10;;;2.00;;
4409;SDS011;2218;51.408;7.208;2022-08-21T04:25:58;2.07;;;1.97;;
4409;SDS011;2218;51.408;7.208;2022-08-21T04:28:26;1.90;;;1.80;;
4409;SDS011;2218;51.408;7.208;2022-08-21T04:30:54;2.10;;;2.00;;
4409;SDS011;2218;51.408;7.208;2022-08-21T04:33:21;2.00;;;1.90;;
4409;SDS011;2218;51.408;7.208;2022-08-21T04:35:49;2.17;;;2.07;;
4409;SDS011;2218;51.408;7.208;2022-08-21T04:38:16;2.00;;;1.90;;
4409;SDS011;2218;51.408;7.208;2022-08-21T04:40:45;2.20;;;2.10;;
4409;SDS011;2218;51.408;7.208;2022-08-21T04:43:13;2.13;;;2.00;;
4409;SDS011;2218;51.408;7.208;2022-08-21T04:45:41;2.10;;;1.90;;
4409;SDS011;2218;51.408;7.208;2022-08-21T04:48:11;2.30;;;2.13;;
4409;SDS011;2218;51.408;7.208;2022-08-21T04:50:41;2.00;;;1.90;;
4409;SDS011;2218;51.408;7.208;2022-08-21T04:53:16;2.47;;;2.27;;
4409;SDS011;2218;51.408;7.208;2022-08-21T04:55:50;2.10;;;2.00;;
4409;SDS011;2218;51.408;7.208;2022-08-21T04:58:20;2.60;;;2.40;;
4409;SDS011;2218;51.408;7.208;2022-08-21T05:00:53;2.03;;;1.93;;
4409;SDS011;2218;51.408;7.208;2022-08-21T05:03:22;1.87;;;1.77;;
4409;SDS011;2218;51.408;7.208;2022-08-21T05:05:50;2.00;;;1.90;;
4409;SDS011;2218;51.408;7.208;2022-08-21T05:08:19;2.43;;;2.30;;
4409;SDS011;2218;51.408;7.208;2022-08-21T05:10:54;1.90;;;1.80;;
4409;SDS011;2218;51.408;7.208;2022-08-21T05:13:21;2.20;;;2.10;;
4409;SDS011;2218;51.408;7.208;2022-08-21T05:15:48;2.07;;;1.97;;
4409;SDS011;2218;51.408;7.208;2022-08-21T05:18:15;2.00;;;1.90;;
4409;SDS011;2218;51.408;7.208;2022-08-21T05:20:42;2.00;;;1.90;;
4409;SDS011;2218;51.408;7.208;2022-08-21T05:23:10;2.03;;;1.93;;
4409;SDS011;2218;51.408;7.208;2022-08-21T05:25:40;1.93;;;1.77;;
4409;SDS011;2218;51.408;7.208;2022-08-21T05:28:09;2.10;;;2.00;;
4409;SDS011;2218;51.408;7.208;2022-08-21T05:30:38;1.67;;;1.57;;
4409;SDS011;2218;51.408;7.208;2022-08-21T05:33:06;1.90;;;1.80;;
4409;SDS011;2218;51.408;7.208;2022-08-21T05:35:33;1.90;;;1.80;;
4409;SDS011;2218;51.408;7.208;2022-08-21T05:38:00;1.80;;;1.70;;
4409;SDS011;2218;51.408;7.208;2022-08-21T05:40:28;1.93;;;1.83;;
4409;SDS011;2218;51.408;7.208;2022-08-21T05:42:55;1.83;;;1.73;;
4409;SDS011;2218;51.408;7.208;2022-08-21T05:45:25;1.90;;;1.80;;
4409;SDS011;2218;51.408;7.208;2022-08-21T05:47:56;1.70;;;1.60;;
4409;SDS011;2218;51.408;7.208;2022-08-21T05:50:23;2.20;;;2.10;;
4409;SDS011;2218;51.408;7.208;2022-08-21T05:52:50;1.67;;;1.57;;
4409;SDS011;2218;51.408;7.208;2022-08-21T05:55:17;1.70;;;1.60;;
4409;SDS011;2218;51.408;7.208;2022-08-21T05:57:44;2.10;;;2.00;;
4409;SDS011;2218;51.408;7.208;2022-08-21T06:00:12;2.20;;;2.10;;
4409;SDS011;2218;51.408;7.208;2022-08-21T06:02:43;1.60;;;1.50;;
4409;SDS011;2218;51.408;7.208;2022-08-21T06:05:10;1.90;;;1.80;;
4409;SDS011;2218;51.408;7.208;2022-08-21T06:07:37;1.60;;;1.50;;
4409;SDS011;2218;51.408;7.208;2022-08-21T06:10:04;1.87;;;1.77;;
4409;SDS011;2218;51.408;7.208;2022-08-21T06:12:32;1.80;;;1.70;;
4409;SDS011;2218;51.408;7.208;2022-08-21T06:14:59;2.13;;;2.03;;
4409;SDS011;2218;51.408;7.208;2022-08-21T06:17:26;1.70;;;1.60;;
4409;SDS011;2218;51.408;7.208;2022-08-21T06:19:54;1.67;;;1.57;;
4409;SDS011;2218;51.408;7.208;2022-08-21T06:22:21;1.63;;;1.53;;
4409;SDS011;2218;51.408;7.208;2022-08-21T06:24:49;1.63;;;1.53;;
4409;SDS011;2218;51.408;7.208;2022-08-21T06:27:16;1.83;;;1.73;;
4409;SDS011;2218;51.408;7.208;2022-08-21T06:29:43;1.77;;;1.67;;
4409;SDS011;2218;51.408;7.208;2022-08-21T06:32:11;2.20;;;2.10;;
4409;SDS011;2218;51.408;7.208;2022-08-21T06:34:39;1.97;;;1.87;;
4409;SDS011;2218;51.408;7.208;2022-08-21T06:37:08;1.70;;;1.60;;
4409;SDS011;2218;51.408;7.208;2022-08-21T06:39:35;1.60;;;1.50;;
4409;SDS011;2218;51.408;7.208;2022-08-21T06:42:02;1.90;;;1.80;;
4409;SDS011;2218;51.408;7.208;2022-08-21T06:44:31;1.83;;;1.73;;
4409;SDS011;2218;51.408;7.208;2022-08-21T06:46:58;1.73;;;1.63;;
4409;SDS011;2218;51.408;7.208;2022-08-21T06:49:24;1.67;;;1.57;;
4409;SDS011;2218;51.408;7.208;2022-08-21T06:51:52;1.70;;;1.60;;
4409;SDS011;2218;51.408;7.208;2022-08-21T06:54:20;1.70;;;1.60;;
4409;SDS011;2218;51.408;7.208;2022-08-21T06:56:47;1.60;;;1.50;;
4409;SDS011;2218;51.408;7.208;2022-08-21T06:59:14;2.07;;;1.97;;
4409;SDS011;2218;51.408;7.208;2022-08-21T07:01:41;1.83;;;1.73;;
4409;SDS011;2218;51.408;7.208;2022-08-21T07:04:08;1.90;;;1.80;;
4409;SDS011;2218;51.408;7.208;2022-08-21T07:06:35;1.50;;;1.40;;
4409;SDS011;2218;51.408;7.208;2022-08-21T07:09:02;1.40;;;1.30;;
4409;SDS011;2218;51.408;7.208;2022-08-21T07:11:31;1.70;;;1.60;;
4409;SDS011;2218;51.408;7.208;2022-08-21T07:13:58;1.57;;;1.47;;
4409;SDS011;2218;51.408;7.208;2022-08-21T07:16:25;1.77;;;1.67;;
4409;SDS011;2218;51.408;7.208;2022-08-21T07:18:51;1.60;;;1.50;;
4409;SDS011;2218;51.408;7.208;2022-08-21T07:21:18;1.40;;;1.30;;
4409;SDS011;2218;51.408;7.208;2022-08-21T07:23:47;1.80;;;1.70;;
4409;SDS011;2218;51.408;7.208;2022-08-21T07:26:17;1.70;;;1.60;;
4409;SDS011;2218;51.408;7.208;2022-08-21T07:28:49;1.63;;;1.53;;
4409;SDS011;2218;51.408;7.208;2022-08-21T07:31:17;1.67;;;1.57;;
4409;SDS011;2218;51.408;7.208;2022-08-21T07:33:48;2.00;;;1.80;;
4409;SDS011;2218;51.408;7.208;2022-08-21T07:36:15;1.80;;;1.70;;
4409;SDS011;2218;51.408;7.208;2022-08-21T07:38:42;1.60;;;1.50;;
4409;SDS011;2218;51.408;7.208;2022-08-21T07:41:16;1.90;;;1.80;;
4409;SDS011;2218;51.408;7.208;2022-08-21T07:43:45;1.60;;;1.50;;
4409;SDS011;2218;51.408;7.208;2022-08-21T07:46:14;1.70;;;1.60;;
4409;SDS011;2218;51.408;7.208;2022-08-21T07:48:41;1.50;;;1.40;;
4409;SDS011;2218;51.408;7.208;2022-08-21T07:51:09;1.70;;;1.60;;
4409;SDS011;2218;51.408;7.208;2022-08-21T07:53:38;1.67;;;1.57;;
4409;SDS011;2218;51.408;7.208;2022-08-21T07:56:06;1.50;;;1.40;;
4409;SDS011;2218;51.408;7.208;2022-08-21T07:58:36;1.40;;;1.30;;
4409;SDS011;2218;51.408;7.208;2022-08-21T08:01:03;1.83;;;1.73;;
4409;SDS011;2218;51.408;7.208;2022-08-21T08:03:33;1.50;;;1.40;;
4409;SDS011;2218;51.408;7.208;2022-08-21T08:06:01;1.60;;;1.50;;
4409;SDS011;2218;51.408;7.208;2022-08-21T08:08:30;1.80;;;1.70;;
4409;SDS011;2218;51.408;7.208;2022-08-21T08:10:57;1.70;;;1.60;;
4409;SDS011;2218;51.408;7.208;2022-08-21T08:13:26;1.50;;;1.40;;
4409;SDS011;2218;51.408;7.208;2022-08-21T08:15:53;2.07;;;1.97;;
4409;SDS011;2218;51.408;7.208;2022-08-21T08:18:20;1.40;;;1.30;;
4409;SDS011;2218;51.408;7.208;2022-08-21T08:20:49;1.37;;;1.27;;
4409;SDS011;2218;51.408;7.208;2022-08-21T08:23:16;1.80;;;1.70;;
4409;SDS011;2218;51.408;7.208;2022-08-21T08:25:43;1.27;;;1.17;;
4409;SDS011;2218;51.408;7.208;2022-08-21T08:28:10;1.60;;;1.50;;
4409;SDS011;2218;51.408;7.208;2022-08-21T08:30:37;1.47;;;1.37;;
4409;SDS011;2218;51.408;7.208;2022-08-21T08:33:04;1.60;;;1.50;;
4409;SDS011;2218;51.408;7.208;2022-08-21T08:35:31;1.40;;;1.30;;
4409;SDS011;2218;51.408;7.208;2022-08-21T08:37:59;1.70;;;1.60;;
4409;SDS011;2218;51.408;7.208;2022-08-21T08:40:28;1.63;;;1.53;;
4409;SDS011;2218;51.408;7.208;2022-08-21T08:43:05;1.40;;;1.30;;
4409;SDS011;2218;51.408;7.208;2022-08-21T08:45:34;1.40;;;1.30;;
4409;SDS011;2218;51.408;7.208;2022-08-21T08:48:07;1.60;;;1.50;;
4409;SDS011;2218;51.408;7.208;2022-08-21T08:50:41;1.90;;;1.80;;
4409;SDS011;2218;51.408;7.208;2022-08-21T08:53:17;1.67;;;1.57;;
4409;SDS011;2218;51.408;7.208;2022-08-21T08:55:49;1.63;;;1.50;;
4409;SDS011;2218;51.408;7.208;2022-08-21T08:58:19;1.70;;;1.60;;
4409;SDS011;2218;51.408;7.208;2022-08-21T09:00:51;1.80;;;1.70;;
4409;SDS011;2218;51.408;7.208;2022-08-21T09:03:20;1.40;;;1.30;;
4409;SDS011;2218;51.408;7.208;2022-08-21T09:05:52;1.50;;;1.40;;
4409;SDS011;2218;51.408;7.208;2022-08-21T09:08:43;1.70;;;1.60;;
4409;SDS011;2218;51.408;7.208;2022-08-21T09:11:23;1.77;;;1.67;;
4409;SDS011;2218;51.408;7.208;2022-08-21T09:14:01;1.40;;;1.30;;
4409;SDS011;2218;51.408;7.208;2022-08-21T09:16:46;1.50;;;1.40;;
4409;SDS011;2218;51.408;7.208;2022-08-21T09:19:33;1.20;;;1.10;;
4409;SDS011;2218;51.408;7.208;2022-08-21T09:22:17;1.93;;;1.30;;
4409;SDS011;2218;51.408;7.208;2022-08-21T09:24:59;1.50;;;1.40;;
4409;SDS011;2218;51.408;7.208;2022-08-21T09:27:35;1.70;;;1.60;;
4409;SDS011;2218;51.408;7.208;2022-08-21T09:30:03;1.50;;;1.40;;
4409;SDS011;2218;51.408;7.208;2022-08-21T09:32:34;5.57;;;1.30;;
4409;SDS011;2218;51.408;7.208;2022-08-21T09:35:05;1.50;;;1.40;;
4409;SDS011;2218;51.408;7.208;2022-08-21T09:37:45;1.50;;;1.40;;
4409;SDS011;2218;51.408;7.208;2022-08-21T09:40:21;1.50;;;1.40;;
4409;SDS011;2218;51.408;7.208;2022-08-21T09:42:59;1.30;;;1.20;;
4409;SDS011;2218;51.408;7.208;2022-08-21T09:45:30;1.70;;;1.60;;
4409;SDS011;2218;51.408;7.208;2022-08-21T09:48:07;1.50;;;1.40;;
4409;SDS011;2218;51.408;7.208;2022-08-21T09:50:37;1.77;;;1.67;;
4409;SDS011;2218;51.408;7.208;2022-08-21T09:53:05;1.30;;;1.20;;
4409;SDS011;2218;51.408;7.208;2022-08-21T09:55:48;1.50;;;1.40;;
4409;SDS011;2218;51.408;7.208;2022-08-21T09:58:37;1.40;;;1.30;;
4409;SDS011;2218;51.408;7.208;2022-08-21T10:01:13;1.33;;;1.23;;
4409;SDS011;2218;51.408;7.208;2022-08-21T10:03:43;1.23;;;1.13;;
4409;SDS011;2218;51.408;7.208;2022-08-21T10:06:21;1.40;;;1.30;;
4409;SDS011;2218;51.408;7.208;2022-08-21T10:09:02;1.47;;;1.37;;
4409;SDS011;2218;51.408;7.208;2022-08-21T10:11:33;1.30;;;1.20;;
4409;SDS011;2218;51.408;7.208;2022-08-21T10:14:03;1.60;;;1.50;;
4409;SDS011;2218;51.408;7.208;2022-08-21T10:16:46;1.73;;;1.33;;
4409;SDS011;2218;51.408;7.208;2022-08-21T10:19:30;1.47;;;1.37;;
4409;SDS011;2218;51.408;7.208;2022-08-21T10:22:12;1.50;;;1.40;;
4409;SDS011;2218;51.408;7.208;2022-08-21T10:24:57;1.77;;;1.67;;
4409;SDS011;2218;51.408;7.208;2022-08-21T10:27:44;1.50;;;1.40;;
4409;SDS011;2218;51.408;7.208;2022-08-21T10:30:35;1.30;;;1.20;;
4409;SDS011;2218;51.408;7.208;2022-08-21T10:33:14;1.70;;;1.60;;
4409;SDS011;2218;51.408;7.208;2022-08-21T10:36:01;1.40;;;1.30;;
4409;SDS011;2218;51.408;7.208;2022-08-21T10:38:42;1.60;;;1.50;;
4409;SDS011;2218;51.408;7.208;2022-08-21T10:41:28;1.37;;;1.27;;
4409;SDS011;2218;51.408;7.208;2022-08-21T10:44:17;1.37;;;1.27;;
4409;SDS011;2218;51.408;7.208;2022-08-21T10:46:57;1.50;;;1.40;;
4409;SDS011;2218;51.408;7.208;2022-08-21T10:49:33;1.20;;;1.10;;
4409;SDS011;2218;51.408;7.208;2022-08-21T10:52:20;1.37;;;1.27;;
4409;SDS011;2218;51.408;7.208;2022-08-21T10:55:14;1.40;;;1.30;;
4409;SDS011;2218;51.408;7.208;2022-08-21T10:57:46;1.40;;;1.30;;
4409;SDS011;2218;51.408;7.208;2022-08-21T11:00:22;1.57;;;1.20;;
4409;SDS011;2218;51.408;7.208;2022-08-21T11:02:57;1.80;;;1.70;;
4409;SDS011;2218;51.408;7.208;2022-08-21T11:05:31;1.37;;;1.27;;
4409;SDS011;2218;51.408;7.208;2022-08-21T11:08:05;1.40;;;1.30;;
4409;SDS011;2218;51.408;7.208;2022-08-21T11:10:38;1.67;;;1.57;;
4409;SDS011;2218;51.408;7.208;2022-08-21T11:13:14;1.40;;;1.30;;
4409;SDS011;2218;51.408;7.208;2022-08-21T11:15:51;1.50;;;1.40;;
4409;SDS011;2218;51.408;7.208;2022-08-21T11:18:28;1.30;;;1.20;;
4409;SDS011;2218;51.408;7.208;2022-08-21T11:21:11;1.40;;;1.30;;
4409;SDS011;2218;51.408;7.208;2022-08-21T11:23:57;1.57;;;1.47;;
4409;SDS011;2218;51.408;7.208;2022-08-21T11:26:41;2.03;;;1.70;;
4409;SDS011;2218;51.408;7.208;2022-08-21T11:29:22;1.50;;;1.40;;
4409;SDS011;2218;51.408;7.208;2022-08-21T11:32:03;1.40;;;1.30;;
4409;SDS011;2218;51.408;7.208;2022-08-21T11:35:03;1.33;;;1.23;;
4409;SDS011;2218;51.408;7.208;2022-08-21T11:37:49;1.30;;;1.20;;
4409;SDS011;2218;51.408;7.208;2022-08-21T11:40:37;1.93;;;1.40;;
4409;SDS011;2218;51.408;7.208;2022-08-21T11:43:23;1.47;;;1.37;;
4409;SDS011;2218;51.408;7.208;2022-08-21T11:46:06;1.27;;;1.17;;
4409;SDS011;2218;51.408;7.208;2022-08-21T11:48:48;1.30;;;1.20;;
4409;SDS011;2218;51.408;7.208;2022-08-21T11:51:43;1.07;;;1.00;;
4409;SDS011;2218;51.408;7.208;2022-08-21T11:54:20;1.63;;;1.53;;
4409;SDS011;2218;51.408;7.208;2022-08-21T11:56:55;1.07;;;1.03;;
4409;SDS011;2218;51.408;7.208;2022-08-21T11:59:30;1.50;;;1.40;;
4409;SDS011;2218;51.408;7.208;2022-08-21T12:02:06;1.40;;;1.30;;
4409;SDS011;2218;51.408;7.208;2022-08-21T12:04:46;1.87;;;1.20;;
4409;SDS011;2218;51.408;7.208;2022-08-21T12:07:32;1.37;;;1.27;;
4409;SDS011;2218;51.408;7.208;2022-08-21T12:10:06;1.57;;;1.47;;
4409;SDS011;2218;51.408;7.208;2022-08-21T12:12:37;1.30;;;1.20;;
4409;SDS011;2218;51.408;7.208;2022-08-21T12:15:23;1.40;;;1.30;;
4409;SDS011;2218;51.408;7.208;2022-08-21T12:17:56;1.50;;;1.40;;
4409;SDS011;2218;51.408;7.208;2022-08-21T12:20:34;1.40;;;1.30;;
4409;SDS011;2218;51.408;7.208;2022-08-21T12:23:15;1.40;;;1.27;;
4409;SDS011;2218;51.408;7.208;2022-08-21T12:26:00;1.30;;;1.20;;
4409;SDS011;2218;51.408;7.208;2022-08-21T12:29:02;1.50;;;1.40;;
4409;SDS011;2218;51.408;7.208;2022-08-21T12:31:33;1.30;;;1.20;;
4409;SDS011;2218;51.408;7.208;2022-08-21T12:34:01;1.43;;;1.33;;
4409;SDS011;2218;51.408;7.208;2022-08-21T12:36:40;1.20;;;1.10;;
4409;SDS011;2218;51.408;7.208;2022-08-21T12:39:13;1.40;;;1.30;;
4409;SDS011;2218;51.408;7.208;2022-08-21T12:41:49;1.23;;;1.13;;
4409;SDS011;2218;51.408;7.208;2022-08-21T12:44:22;1.30;;;1.20;;
4409;SDS011;2218;51.408;7.208;2022-08-21T12:47:02;1.30;;;1.20;;
4409;SDS011;2218;51.408;7.208;2022-08-21T12:49:34;1.67;;;1.57;;
4409;SDS011;2218;51.408;7.208;2022-08-21T12:52:11;1.43;;;1.33;;
4409;SDS011;2218;51.408;7.208;2022-08-21T12:54:46;1.30;;;1.20;;
4409;SDS011;2218;51.408;7.208;2022-08-21T12:57:18;1.70;;;1.60;;
4409;SDS011;2218;51.408;7.208;2022-08-21T12:59:51;1.37;;;1.27;;
4409;SDS011;2218;51.408;7.208;2022-08-21T13:02:21;1.30;;;1.20;;
4409;SDS011;2218;51.408;7.208;2022-08-21T13:04:55;1.83;;;1.43;;
4409;SDS011;2218;51.408;7.208;2022-08-21T13:07:27;1.57;;;1.20;;
4409;SDS011;2218;51.408;7.208;2022-08-21T13:09:59;1.60;;;1.50;;
4409;SDS011;2218;51.408;7.208;2022-08-21T13:12:31;1.37;;;1.27;;
4409;SDS011;2218;51.408;7.208;2022-08-21T13:15:02;1.57;;;1.47;;
4409;SDS011;2218;51.408;7.208;2022-08-21T13:17:34;1.70;;;1.60;;
4409;SDS011;2218;51.408;7.208;2022-08-21T13:20:07;1.40;;;1.30;;
4409;SDS011;2218;51.408;7.208;2022-08-21T13:22:42;1.30;;;1.20;;
4409;SDS011;2218;51.408;7.208;2022-08-21T13:25:11;1.30;;;1.20;;
4409;SDS011;2218;51.408;7.208;2022-08-21T13:27:41;1.30;;;1.20;;
4409;SDS011;2218;51.408;7.208;2022-08-21T13:30:13;1.30;;;1.20;;
4409;SDS011;2218;51.408;7.208;2022-08-21T13:32:48;1.53;;;1.43;;
4409;SDS011;2218;51.408;7.208;2022-08-21T13:35:22;1.57;;;1.10;;
4409;SDS011;2218;51.408;7.208;2022-08-21T13:37:55;1.40;;;1.30;;
4409;SDS011;2218;51.408;7.208;2022-08-21T13:40:26;1.37;;;1.27;;
4409;SDS011;2218;51.408;7.208;2022-08-21T13:42:57;1.43;;;1.33;;
4409;SDS011;2218;51.408;7.208;2022-08-21T13:45:29;1.20;;;1.10;;
4409;SDS011;2218;51.408;7.208;2022-08-21T13:47:59;1.37;;;1.27;;
4409;SDS011;2218;51.408;7.208;2022-08-21T13:50:28;1.30;;;1.20;;
4409;SDS011;2218;51.408;7.208;2022-08-21T13:52:58;1.17;;;1.10;;
4409;SDS011;2218;51.408;7.208;2022-08-21T13:55:36;1.30;;;1.20;;
4409;SDS011;2218;51.408;7.208;2022-08-21T13:58:08;1.50;;;1.40;;
4409;SDS011;2218;51.408;7.208;2022-08-21T14:00:43;1.20;;;1.10;;
4409;SDS011;2218;51.408;7.208;2022-08-21T14:03:23;1.43;;;1.33;;
4409;SDS011;2218;51.408;7.208;2022-08-21T14:05:58;1.10;;;0.90;;
4409;SDS011;2218;51.408;7.208;2022-08-21T14:08:29;1.40;;;1.30;;
4409;SDS011;2218;51.408;7.208;2022-08-21T14:11:02;1.23;;;1.13;;
4409;SDS011;2218;51.408;7.208;2022-08-21T14:13:36;1.30;;;1.20;;
4409;SDS011;2218;51.408;7.208;2022-08-21T14:16:13;3.23;;;1.27;;
4409;SDS011;2218;51.408;7.208;2022-08-21T14:18:45;1.30;;;1.20;;
4409;SDS011;2218;51.408;7.208;2022-08-21T14:21:23;1.37;;;1.27;;
4409;SDS011;2218;51.408;7.208;2022-08-21T14:24:07;1.30;;;1.20;;
4409;SDS011;2218;51.408;7.208;2022-08-21T14:26:42;1.43;;;1.33;;
4409;SDS011;2218;51.408;7.208;2022-08-21T14:29:16;1.33;;;1.23;;
4409;SDS011;2218;51.408;7.208;2022-08-21T14:31:49;1.33;;;1.23;;
4409;SDS011;2218;51.408;7.208;2022-08-21T14:34:17;1.20;;;1.10;;
4409;SDS011;2218;51.408;7.208;2022-08-21T14:36:44;1.20;;;1.10;;
4409;SDS011;2218;51.408;7.208;2022-08-21T14:39:14;1.27;;;1.17;;
4409;SDS011;2218;51.408;7.208;2022-08-21T14:41:42;1.20;;;1.10;;
4409;SDS011;2218;51.408;7.208;2022-08-21T14:44:13;1.40;;;1.20;;
4409;SDS011;2218;51.408;7.208;2022-08-21T14:46:41;1.30;;;1.20;;
4409;SDS011;2218;51.408;7.208;2022-08-21T14:49:08;1.47;;;1.37;;
4409;SDS011;2218;51.408;7.208;2022-08-21T14:51:36;1.40;;;1.30;;
4409;SDS011;2218;51.408;7.208;2022-08-21T14:54:04;1.40;;;1.30;;
4409;SDS011;2218;51.408;7.208;2022-08-21T14:56:33;1.13;;;1.03;;
4409;SDS011;2218;51.408;7.208;2022-08-21T14:59:04;1.50;;;1.20;;
4409;SDS011;2218;51.408;7.208;2022-08-21T15:01:34;1.83;;;1.50;;
4409;SDS011;2218;51.408;7.208;2022-08-21T15:04:03;1.60;;;1.50;;
4409;SDS011;2218;51.408;7.208;2022-08-21T15:06:30;1.17;;;1.07;;
4409;SDS011;2218;51.408;7.208;2022-08-21T15:08:57;1.40;;;1.30;;
4409;SDS011;2218;51.408;7.208;2022-08-21T15:11:26;1.50;;;1.40;;
4409;SDS011;2218;51.408;7.208;2022-08-21T15:13:56;1.40;;;1.30;;
4409;SDS011;2218;51.408;7.208;2022-08-21T15:16:27;1.30;;;1.20;;
4409;SDS011;2218;51.408;7.208;2022-08-21T15:18:56;1.37;;;1.27;;
4409;SDS011;2218;51.408;7.208;2022-08-21T15:21:23;1.30;;;1.20;;
4409;SDS011;2218;51.408;7.208;2022-08-21T15:23:50;1.20;;;1.10;;
4409;SDS011;2218;51.408;7.208;2022-08-21T15:26:17;1.23;;;1.13;;
4409;SDS011;2218;51.408;7.208;2022-08-21T15:28:46;1.27;;;1.17;;
4409;SDS011;2218;51.408;7.208;2022-08-21T15:31:14;1.40;;;1.30;;
4409;SDS011;2218;51.408;7.208;2022-08-21T15:33:41;1.30;;;1.20;;
4409;SDS011;2218;51.408;7.208;2022-08-21T15:36:08;1.07;;;1.07;;
4409;SDS011;2218;51.408;7.208;2022-08-21T15:38:35;1.30;;;1.20;;
4409;SDS011;2218;51.408;7.208;2022-08-21T15:41:02;1.03;;;0.97;;